sensor_id;sensor_type;location;lat;lon;timestamp;noise_LAeq;noise_LA_min;noise_LA_max;noise_LA01;noise_LA95
76382;Laerm;65202;52.520;10.528;2023-08-08T00:01:39;43.00;35.90;55.64;;
76382;Laerm;65202;52.520;10.528;2023-08-08T00:04:10;42.76;36.05;54.19;;
76382;Laerm;65202;52.520;10.528;2023-08-08T00:06:37;42.28;35.32;53.60;;
76382;Laerm;65202;52.520;10.528;2023-08-08T00:09:05;42.68;35.60;53.37;;
76382;Laerm;65202;52.520;10.528;2023-08-08T00:11:32;42.66;35.37;53.88;;
76382;Laerm;65202;52.520;10.528;2023-08-08T00:14:00;42.47;34.84;53.77;;
76382;Laerm;65202;52.520;10.528;2023-08-08T00:16:27;41.77;34.22;53.81;;
76382;Laerm;65202;52.520;10.528;2023-08-08T00:18:54;42.30;33.85;54.03;;
76382;Laerm;65202;52.520;10.528;2023-08-08T00:21:22;42.33;33.96;53.18;;
76382;Laerm;65202;52.520;10.528;2023-08-08T00:23:49;41.61;33.76;53.75;;
76382;Laerm;65202;52.520;10.528;2023-08-08T00:26:16;41.34;33.30;53.48;;
76382;Laerm;65202;52.520;10.528;2023-08-08T00:28:44;42.11;34.43;54.10;;
76382;Laerm;65202;52.520;10.528;2023-08-08T00:31:11;42.64;34.70;54.09;;
76382;Laerm;65202;52.520;10.528;2023-08-08T00:33:38;42.07;35.07;53.44;;
76382;Laerm;65202;52.520;10.528;2023-08-08T00:36:06;41.55;33.85;53.56;;
76382;Laerm;65202;52.520;10.528;2023-08-08T00:38:33;41.55;33.51;53.46;;
76382;Laerm;65202;52.520;10.528;2023-08-08T00:41:00;42.05;34.23;53.19;;
76382;Laerm;65202;52.520;10.528;2023-08-08T00:43:28;42.62;34.63;61.25;;
76382;Laerm;65202;52.520;10.528;2023-08-08T00:45:56;41.80;34.77;54.44;;
76382;Laerm;65202;52.520;10.528;2023-08-08T00:48:24;41.85;34.26;52.95;;
76382;Laerm;65202;52.520;10.528;2023-08-08T00:50:52;42.61;35.46;53.38;;
76382;Laerm;65202;52.520;10.528;2023-08-08T00:53:20;42.17;33.87;54.49;;
76382;Laerm;65202;52.520;10.528;2023-08-08T00:55:50;42.32;34.61;53.33;;
76382;Laerm;65202;52.520;10.528;2023-08-08T00:58:18;43.52;35.38;54.16;;
76382;Laerm;65202;52.520;10.528;2023-08-08T01:00:46;43.89;35.87;54.48;;
76382;Laerm;65202;52.520;10.528;2023-08-08T01:03:13;42.32;34.32;54.08;;
76382;Laerm;65202;52.520;10.528;2023-08-08T01:05:52;42.23;33.51;53.68;;
76382;Laerm;65202;52.520;10.528;2023-08-08T01:08:27;43.56;35.77;54.52;;
76382;Laerm;65202;52.520;10.528;2023-08-08T01:10:57;42.58;34.99;54.81;;
76382;Laerm;65202;52.520;10.528;2023-08-08T01:13:27;43.15;34.87;53.72;;
76382;Laerm;65202;52.520;10.528;2023-08-08T01:15:58;43.10;34.78;54.20;;
76382;Laerm;65202;52.520;10.528;2023-08-08T01:18:27;43.09;35.67;54.83;;
76382;Laerm;65202;52.520;10.528;2023-08-08T01:20:56;42.71;35.28;54.34;;
76382;Laerm;65202;52.520;10.528;2023-08-08T01:23:38;42.22;35.26;53.82;;
76382;Laerm;65202;52.520;10.528;2023-08-08T01:26:08;42.36;34.08;53.90;;
76382;Laerm;65202;52.520;10.528;2023-08-08T01:28:36;42.70;35.09;54.23;;
76382;Laerm;65202;52.520;10.528;2023-08-08T01:31:03;42.99;35.79;53.92;;
76382;Laerm;65202;52.520;10.528;2023-08-08T01:33:30;42.42;34.88;54.52;;
76382;Laerm;65202;52.520;10.528;2023-08-08T01:36:10;42.47;35.08;54.66;;
76382;Laerm;65202;52.520;10.528;2023-08-08T01:38:43;42.06;34.56;54.06;;
76382;Laerm;65202;52.520;10.528;2023-08-08T01:41:12;43.19;35.18;54.33;;
76382;Laerm;65202;52.520;10.528;2023-08-08T01:43:40;43.86;36.07;53.82;;
76382;Laerm;65202;52.520;10.528;2023-08-08T01:46:09;42.29;34.37;54.21;;
76382;Laerm;65202;52.520;10.528;2023-08-08T01:48:37;43.01;34.79;54.08;;
76382;Laerm;65202;52.520;10.528;2023-08-08T01:51:05;42.27;34.32;54.17;;
76382;Laerm;65202;52.520;10.528;2023-08-08T01:53:32;42.91;34.48;54.28;;
76382;Laerm;65202;52.520;10.528;2023-08-08T01:56:00;42.32;33.53;54.11;;
76382;Laerm;65202;52.520;10.528;2023-08-08T01:58:27;43.13;34.36;54.87;;
76382;Laerm;65202;52.520;10.528;2023-08-08T02:00:54;43.15;34.75;54.03;;
76382;Laerm;65202;52.520;10.528;2023-08-08T02:03:21;42.35;33.73;54.22;;
76382;Laerm;65202;52.520;10.528;2023-08-08T02:05:49;42.03;33.08;53.97;;
76382;Laerm;65202;52.520;10.528;2023-08-08T02:08:16;43.25;34.68;54.36;;
76382;Laerm;65202;52.520;10.528;2023-08-08T02:10:45;42.10;33.31;54.61;;
76382;Laerm;65202;52.520;10.528;2023-08-08T02:13:12;42.36;34.20;54.86;;
76382;Laerm;65202;52.520;10.528;2023-08-08T02:15:39;43.07;34.57;53.98;;
76382;Laerm;65202;52.520;10.528;2023-08-08T02:18:07;42.75;34.29;53.70;;
76382;Laerm;65202;52.520;10.528;2023-08-08T02:20:36;41.98;33.74;54.09;;
76382;Laerm;65202;52.520;10.528;2023-08-08T02:23:03;43.43;35.73;54.52;;
76382;Laerm;65202;52.520;10.528;2023-08-08T02:25:30;43.11;35.14;57.26;;
76382;Laerm;65202;52.520;10.528;2023-08-08T02:27:58;43.20;35.29;53.98;;
76382;Laerm;65202;52.520;10.528;2023-08-08T02:30:25;43.21;35.30;54.60;;
76382;Laerm;65202;52.520;10.528;2023-08-08T02:32:52;42.26;34.20;54.38;;
76382;Laerm;65202;52.520;10.528;2023-08-08T02:35:19;44.68;34.36;55.59;;
76382;Laerm;65202;52.520;10.528;2023-08-08T02:37:47;42.95;34.85;54.71;;
76382;Laerm;65202;52.520;10.528;2023-08-08T02:40:14;42.48;34.74;54.88;;
76382;Laerm;65202;52.520;10.528;2023-08-08T02:42:41;43.02;34.74;53.77;;
76382;Laerm;65202;52.520;10.528;2023-08-08T02:45:09;43.05;35.86;53.96;;
76382;Laerm;65202;52.520;10.528;2023-08-08T02:47:36;42.39;34.12;53.88;;
76382;Laerm;65202;52.520;10.528;2023-08-08T02:50:04;42.56;34.92;53.77;;
76382;Laerm;65202;52.520;10.528;2023-08-08T02:52:31;42.71;35.14;54.66;;
76382;Laerm;65202;52.520;10.528;2023-08-08T02:54:58;43.63;35.67;54.41;;
76382;Laerm;65202;52.520;10.528;2023-08-08T02:57:26;47.08;35.95;61.87;;
76382;Laerm;65202;52.520;10.528;2023-08-08T02:59:53;43.25;36.05;55.06;;
76382;Laerm;65202;52.520;10.528;2023-08-08T03:02:20;43.17;35.80;53.68;;
76382;Laerm;65202;52.520;10.528;2023-08-08T03:04:47;44.15;36.36;54.19;;
76382;Laerm;65202;52.520;10.528;2023-08-08T03:07:15;43.21;35.31;54.26;;
76382;Laerm;65202;52.520;10.528;2023-08-08T03:09:42;43.16;35.36;53.96;;
76382;Laerm;65202;52.520;10.528;2023-08-08T03:12:09;44.21;36.99;59.60;;
76382;Laerm;65202;52.520;10.528;2023-08-08T03:14:36;43.74;36.69;53.76;;
76382;Laerm;65202;52.520;10.528;2023-08-08T03:17:04;43.82;35.57;54.03;;
76382;Laerm;65202;52.520;10.528;2023-08-08T03:19:32;43.74;37.00;55.25;;
76382;Laerm;65202;52.520;10.528;2023-08-08T03:21:59;43.88;36.59;54.65;;
76382;Laerm;65202;52.520;10.528;2023-08-08T03:24:27;44.18;38.00;54.26;;
76382;Laerm;65202;52.520;10.528;2023-08-08T03:26:54;44.36;36.66;54.34;;
76382;Laerm;65202;52.520;10.528;2023-08-08T03:29:21;49.70;38.95;66.47;;
76382;Laerm;65202;52.520;10.528;2023-08-08T03:31:49;46.97;37.72;66.43;;
76382;Laerm;65202;52.520;10.528;2023-08-08T03:34:16;44.66;37.23;55.12;;
76382;Laerm;65202;52.520;10.528;2023-08-08T03:36:43;44.44;37.06;58.03;;
76382;Laerm;65202;52.520;10.528;2023-08-08T03:39:11;45.86;37.10;59.26;;
76382;Laerm;65202;52.520;10.528;2023-08-08T03:41:38;44.47;37.42;54.86;;
76382;Laerm;65202;52.520;10.528;2023-08-08T03:44:05;44.29;38.05;53.99;;
76382;Laerm;65202;52.520;10.528;2023-08-08T03:46:33;44.32;38.06;54.00;;
76382;Laerm;65202;52.520;10.528;2023-08-08T03:49:01;44.37;37.55;55.68;;
76382;Laerm;65202;52.520;10.528;2023-08-08T03:51:29;44.90;38.06;56.38;;
76382;Laerm;65202;52.520;10.528;2023-08-08T03:53:56;44.98;38.07;54.72;;
76382;Laerm;65202;52.520;10.528;2023-08-08T03:56:23;48.49;37.44;64.58;;
76382;Laerm;65202;52.520;10.528;2023-08-08T03:58:50;44.32;37.76;54.28;;
76382;Laerm;65202;52.520;10.528;2023-08-08T04:01:18;44.35;35.99;56.54;;
76382;Laerm;65202;52.520;10.528;2023-08-08T04:03:45;45.47;38.85;54.39;;
76382;Laerm;65202;52.520;10.528;2023-08-08T04:06:12;45.16;38.62;56.92;;
76382;Laerm;65202;52.520;10.528;2023-08-08T04:08:40;44.19;37.40;54.17;;
76382;Laerm;65202;52.520;10.528;2023-08-08T04:11:07;46.18;38.31;61.81;;
76382;Laerm;65202;52.520;10.528;2023-08-08T04:13:34;45.66;38.68;59.91;;
76382;Laerm;65202;52.520;10.528;2023-08-08T04:16:01;45.29;38.56;59.31;;
76382;Laerm;65202;52.520;10.528;2023-08-08T04:18:29;44.82;37.89;60.82;;
76382;Laerm;65202;52.520;10.528;2023-08-08T04:20:56;49.03;38.16;65.17;;
76382;Laerm;65202;52.520;10.528;2023-08-08T04:23:23;45.75;37.60;58.17;;
76382;Laerm;65202;52.520;10.528;2023-08-08T04:25:53;45.80;38.25;55.61;;
76382;Laerm;65202;52.520;10.528;2023-08-08T04:28:20;45.51;38.64;55.33;;
76382;Laerm;65202;52.520;10.528;2023-08-08T04:30:47;44.50;37.67;54.28;;
76382;Laerm;65202;52.520;10.528;2023-08-08T04:33:15;48.59;39.09;60.60;;
76382;Laerm;65202;52.520;10.528;2023-08-08T04:35:42;45.85;40.52;55.95;;
76382;Laerm;65202;52.520;10.528;2023-08-08T04:38:09;47.83;39.70;61.61;;
76382;Laerm;65202;52.520;10.528;2023-08-08T04:40:37;47.23;38.95;62.22;;
76382;Laerm;65202;52.520;10.528;2023-08-08T04:43:05;45.61;38.81;55.52;;
76382;Laerm;65202;52.520;10.528;2023-08-08T04:45:32;45.41;39.37;54.26;;
76382;Laerm;65202;52.520;10.528;2023-08-08T04:48:00;44.58;39.15;54.31;;
76382;Laerm;65202;52.520;10.528;2023-08-08T04:50:27;46.75;39.34;59.35;;
76382;Laerm;65202;52.520;10.528;2023-08-08T04:52:55;45.24;39.77;55.67;;
76382;Laerm;65202;52.520;10.528;2023-08-08T04:55:22;45.51;38.43;68.17;;
76382;Laerm;65202;52.520;10.528;2023-08-08T04:57:50;45.77;39.02;61.38;;
76382;Laerm;65202;52.520;10.528;2023-08-08T05:00:17;47.01;37.53;57.35;;
76382;Laerm;65202;52.520;10.528;2023-08-08T05:02:44;44.20;37.61;56.24;;
76382;Laerm;65202;52.520;10.528;2023-08-08T05:05:12;46.77;39.35;71.73;;
76382;Laerm;65202;52.520;10.528;2023-08-08T05:07:39;45.44;38.26;63.55;;
76382;Laerm;65202;52.520;10.528;2023-08-08T05:10:06;45.16;37.46;53.77;;
76382;Laerm;65202;52.520;10.528;2023-08-08T05:12:34;44.09;37.74;54.09;;
76382;Laerm;65202;52.520;10.528;2023-08-08T05:15:01;47.71;39.97;61.88;;
76382;Laerm;65202;52.520;10.528;2023-08-08T05:17:30;49.34;39.54;66.55;;
76382;Laerm;65202;52.520;10.528;2023-08-08T05:19:59;46.69;38.55;60.01;;
76382;Laerm;65202;52.520;10.528;2023-08-08T05:22:26;46.91;38.88;59.99;;
76382;Laerm;65202;52.520;10.528;2023-08-08T05:24:53;46.90;39.92;74.00;;
76382;Laerm;65202;52.520;10.528;2023-08-08T05:27:20;46.01;37.99;66.90;;
76382;Laerm;65202;52.520;10.528;2023-08-08T05:29:48;47.61;38.54;72.01;;
76382;Laerm;65202;52.520;10.528;2023-08-08T05:32:15;46.75;39.48;60.72;;
76382;Laerm;65202;52.520;10.528;2023-08-08T05:34:42;48.18;38.20;64.22;;
76382;Laerm;65202;52.520;10.528;2023-08-08T05:37:10;47.28;38.61;60.68;;
76382;Laerm;65202;52.520;10.528;2023-08-08T05:39:44;46.39;39.12;60.59;;
76382;Laerm;65202;52.520;10.528;2023-08-08T05:42:12;45.32;39.35;59.47;;
76382;Laerm;65202;52.520;10.528;2023-08-08T05:44:39;47.10;37.59;61.48;;
76382;Laerm;65202;52.520;10.528;2023-08-08T05:47:08;49.71;39.86;64.51;;
76382;Laerm;65202;52.520;10.528;2023-08-08T05:49:37;44.47;38.66;54.11;;
76382;Laerm;65202;52.520;10.528;2023-08-08T05:52:05;45.38;39.14;55.18;;
76382;Laerm;65202;52.520;10.528;2023-08-08T05:54:33;44.98;39.47;54.35;;
76382;Laerm;65202;52.520;10.528;2023-08-08T05:57:02;44.23;38.44;53.80;;
76382;Laerm;65202;52.520;10.528;2023-08-08T05:59:29;46.60;39.16;57.92;;
76382;Laerm;65202;52.520;10.528;2023-08-08T06:01:57;44.85;39.38;53.88;;
76382;Laerm;65202;52.520;10.528;2023-08-08T06:04:26;45.41;38.23;58.13;;
76382;Laerm;65202;52.520;10.528;2023-08-08T06:06:54;47.42;38.50;63.51;;
76382;Laerm;65202;52.520;10.528;2023-08-08T06:09:21;45.00;38.68;57.97;;
76382;Laerm;65202;52.520;10.528;2023-08-08T06:11:49;44.00;38.91;54.32;;
76382;Laerm;65202;52.520;10.528;2023-08-08T06:14:16;46.26;38.70;55.50;;
76382;Laerm;65202;52.520;10.528;2023-08-08T06:16:44;44.81;39.09;54.41;;
76382;Laerm;65202;52.520;10.528;2023-08-08T06:19:13;44.25;39.02;56.70;;
76382;Laerm;65202;52.520;10.528;2023-08-08T06:21:42;45.26;38.80;55.21;;
76382;Laerm;65202;52.520;10.528;2023-08-08T06:24:09;53.25;40.97;71.86;;
76382;Laerm;65202;52.520;10.528;2023-08-08T06:26:37;44.30;39.06;53.41;;
76382;Laerm;65202;52.520;10.528;2023-08-08T06:29:04;46.04;37.34;60.92;;
76382;Laerm;65202;52.520;10.528;2023-08-08T06:31:31;48.21;38.10;66.30;;
76382;Laerm;65202;52.520;10.528;2023-08-08T06:33:59;50.77;38.10;66.63;;
76382;Laerm;65202;52.520;10.528;2023-08-08T06:36:26;43.28;37.44;53.41;;
76382;Laerm;65202;52.520;10.528;2023-08-08T06:38:53;44.62;38.88;53.52;;
76382;Laerm;65202;52.520;10.528;2023-08-08T06:41:21;47.50;39.44;61.80;;
76382;Laerm;65202;52.520;10.528;2023-08-08T06:43:48;44.47;39.08;53.50;;
76382;Laerm;65202;52.520;10.528;2023-08-08T06:46:15;44.16;37.43;54.26;;
76382;Laerm;65202;52.520;10.528;2023-08-08T06:48:43;45.86;40.27;55.36;;
76382;Laerm;65202;52.520;10.528;2023-08-08T06:51:11;46.56;40.95;55.38;;
76382;Laerm;65202;52.520;10.528;2023-08-08T06:53:39;44.15;37.87;53.32;;
76382;Laerm;65202;52.520;10.528;2023-08-08T06:56:06;48.77;40.25;62.48;;
76382;Laerm;65202;52.520;10.528;2023-08-08T06:58:33;50.14;38.77;67.78;;
76382;Laerm;65202;52.520;10.528;2023-08-08T07:01:01;49.30;39.11;68.43;;
76382;Laerm;65202;52.520;10.528;2023-08-08T07:03:28;45.37;39.65;53.88;;
76382;Laerm;65202;52.520;10.528;2023-08-08T07:05:55;44.70;38.54;54.89;;
76382;Laerm;65202;52.520;10.528;2023-08-08T07:08:22;48.19;39.55;61.80;;
76382;Laerm;65202;52.520;10.528;2023-08-08T07:10:51;48.07;40.60;66.86;;
76382;Laerm;65202;52.520;10.528;2023-08-08T07:13:20;48.93;39.33;66.70;;
76382;Laerm;65202;52.520;10.528;2023-08-08T07:15:48;50.20;39.91;69.61;;
76382;Laerm;65202;52.520;10.528;2023-08-08T07:18:16;48.80;41.53;61.12;;
76382;Laerm;65202;52.520;10.528;2023-08-08T07:20:43;49.66;41.87;66.75;;
76382;Laerm;65202;52.520;10.528;2023-08-08T07:23:11;44.97;39.80;59.03;;
76382;Laerm;65202;52.520;10.528;2023-08-08T07:25:38;49.00;38.91;63.74;;
76382;Laerm;65202;52.520;10.528;2023-08-08T07:28:05;43.18;38.38;53.43;;
76382;Laerm;65202;52.520;10.528;2023-08-08T07:30:33;46.14;38.71;60.02;;
76382;Laerm;65202;52.520;10.528;2023-08-08T07:33:00;49.32;39.81;63.03;;
76382;Laerm;65202;52.520;10.528;2023-08-08T07:35:27;49.40;42.83;64.99;;
76382;Laerm;65202;52.520;10.528;2023-08-08T07:37:54;49.84;42.38;62.53;;
76382;Laerm;65202;52.520;10.528;2023-08-08T07:40:22;52.14;45.23;64.58;;
76382;Laerm;65202;52.520;10.528;2023-08-08T07:42:49;45.02;39.58;55.04;;
76382;Laerm;65202;52.520;10.528;2023-08-08T07:45:17;46.32;39.44;53.04;;
76382;Laerm;65202;52.520;10.528;2023-08-08T07:47:45;53.25;38.39;73.24;;
76382;Laerm;65202;52.520;10.528;2023-08-08T07:50:12;50.64;41.05;64.14;;
76382;Laerm;65202;52.520;10.528;2023-08-08T07:52:40;47.73;40.53;58.92;;
76382;Laerm;65202;52.520;10.528;2023-08-08T07:55:08;47.52;40.03;68.58;;
76382;Laerm;65202;52.520;10.528;2023-08-08T07:57:35;46.51;40.65;55.13;;
76382;Laerm;65202;52.520;10.528;2023-08-08T08:00:04;46.60;40.39;54.78;;
76382;Laerm;65202;52.520;10.528;2023-08-08T08:02:36;48.18;41.39;56.42;;
76382;Laerm;65202;52.520;10.528;2023-08-08T08:05:04;49.91;40.88;59.08;;
76382;Laerm;65202;52.520;10.528;2023-08-08T08:07:36;54.59;44.55;61.54;;
76382;Laerm;65202;52.520;10.528;2023-08-08T08:10:07;52.30;44.00;60.28;;
76382;Laerm;65202;52.520;10.528;2023-08-08T08:12:36;50.46;43.20;57.11;;
76382;Laerm;65202;52.520;10.528;2023-08-08T08:15:04;49.00;43.51;55.24;;
76382;Laerm;65202;52.520;10.528;2023-08-08T08:17:32;48.03;41.77;64.19;;
76382;Laerm;65202;52.520;10.528;2023-08-08T08:19:59;51.25;43.25;68.01;;
76382;Laerm;65202;52.520;10.528;2023-08-08T08:22:27;48.57;43.34;58.23;;
76382;Laerm;65202;52.520;10.528;2023-08-08T08:24:54;51.25;42.31;64.03;;
76382;Laerm;65202;52.520;10.528;2023-08-08T08:27:22;54.49;46.66;62.77;;
76382;Laerm;65202;52.520;10.528;2023-08-08T08:29:49;51.12;43.50;60.40;;
76382;Laerm;65202;52.520;10.528;2023-08-08T08:32:16;52.08;43.32;59.80;;
76382;Laerm;65202;52.520;10.528;2023-08-08T08:34:43;47.46;41.84;61.36;;
76382;Laerm;65202;52.520;10.528;2023-08-08T08:37:11;51.69;43.89;62.55;;
76382;Laerm;65202;52.520;10.528;2023-08-08T08:39:39;49.41;44.52;56.47;;
76382;Laerm;65202;52.520;10.528;2023-08-08T08:42:07;55.49;47.52;66.23;;
76382;Laerm;65202;52.520;10.528;2023-08-08T08:44:37;53.80;46.38;64.21;;
76382;Laerm;65202;52.520;10.528;2023-08-08T08:47:07;52.54;47.37;65.66;;
76382;Laerm;65202;52.520;10.528;2023-08-08T08:49:38;54.94;43.90;80.81;;
76382;Laerm;65202;52.520;10.528;2023-08-08T08:52:06;46.24;41.43;56.19;;
76382;Laerm;65202;52.520;10.528;2023-08-08T08:54:33;46.85;41.51;57.66;;
76382;Laerm;65202;52.520;10.528;2023-08-08T08:57:01;45.84;40.62;63.74;;
76382;Laerm;65202;52.520;10.528;2023-08-08T08:59:28;48.43;40.37;59.00;;
76382;Laerm;65202;52.520;10.528;2023-08-08T09:01:56;48.85;41.64;56.59;;
76382;Laerm;65202;52.520;10.528;2023-08-08T09:04:27;49.39;42.82;57.64;;
76382;Laerm;65202;52.520;10.528;2023-08-08T09:06:55;48.78;42.40;54.76;;
76382;Laerm;65202;52.520;10.528;2023-08-08T09:09:22;49.17;41.46;55.48;;
76382;Laerm;65202;52.520;10.528;2023-08-08T09:11:52;46.57;41.78;56.72;;
76382;Laerm;65202;52.520;10.528;2023-08-08T09:14:25;51.70;44.34;66.91;;
76382;Laerm;65202;52.520;10.528;2023-08-08T09:16:53;50.05;42.41;60.69;;
76382;Laerm;65202;52.520;10.528;2023-08-08T09:19:21;48.89;40.74;65.04;;
76382;Laerm;65202;52.520;10.528;2023-08-08T09:21:50;47.16;41.46;53.75;;
76382;Laerm;65202;52.520;10.528;2023-08-08T09:24:19;49.71;41.09;64.95;;
76382;Laerm;65202;52.520;10.528;2023-08-08T09:26:46;48.20;43.89;57.22;;
76382;Laerm;65202;52.520;10.528;2023-08-08T09:29:14;47.96;40.26;61.30;;
76382;Laerm;65202;52.520;10.528;2023-08-08T09:31:42;52.21;46.12;63.37;;
76382;Laerm;65202;52.520;10.528;2023-08-08T09:34:09;52.52;46.53;60.86;;
76382;Laerm;65202;52.520;10.528;2023-08-08T09:36:37;54.05;48.74;59.81;;
76382;Laerm;65202;52.520;10.528;2023-08-08T09:39:04;49.33;44.15;57.71;;
76382;Laerm;65202;52.520;10.528;2023-08-08T09:41:32;48.78;43.19;61.25;;
76382;Laerm;65202;52.520;10.528;2023-08-08T09:44:00;48.75;41.99;61.31;;
76382;Laerm;65202;52.520;10.528;2023-08-08T09:46:30;46.91;41.08;53.34;;
76382;Laerm;65202;52.520;10.528;2023-08-08T09:48:58;53.10;41.07;70.22;;
76382;Laerm;65202;52.520;10.528;2023-08-08T09:51:26;64.23;45.98;83.01;;
76382;Laerm;65202;52.520;10.528;2023-08-08T09:53:56;62.93;43.75;85.57;;
76382;Laerm;65202;52.520;10.528;2023-08-08T09:56:24;63.23;44.53;82.96;;
76382;Laerm;65202;52.520;10.528;2023-08-08T09:58:52;48.25;41.45;59.48;;
76382;Laerm;65202;52.520;10.528;2023-08-08T10:01:21;47.57;42.82;54.74;;
76382;Laerm;65202;52.520;10.528;2023-08-08T10:03:51;50.96;44.26;57.99;;
76382;Laerm;65202;52.520;10.528;2023-08-08T10:06:19;50.65;44.24;58.32;;
76382;Laerm;65202;52.520;10.528;2023-08-08T10:08:46;49.92;43.04;57.10;;
76382;Laerm;65202;52.520;10.528;2023-08-08T10:11:14;49.96;42.47;59.49;;
76382;Laerm;65202;52.520;10.528;2023-08-08T10:13:50;63.36;45.23;76.69;;
76382;Laerm;65202;52.520;10.528;2023-08-08T10:16:18;55.91;44.91;65.44;;
76382;Laerm;65202;52.520;10.528;2023-08-08T10:19:03;54.97;45.08;65.84;;
76382;Laerm;65202;52.520;10.528;2023-08-08T10:21:36;62.76;45.57;70.18;;
76382;Laerm;65202;52.520;10.528;2023-08-08T10:24:05;59.64;49.47;70.42;;
76382;Laerm;65202;52.520;10.528;2023-08-08T10:26:50;63.55;51.67;71.60;;
76382;Laerm;65202;52.520;10.528;2023-08-08T10:29:19;62.09;56.47;70.27;;
76382;Laerm;65202;52.520;10.528;2023-08-08T10:31:52;55.72;50.60;67.99;;
76382;Laerm;65202;52.520;10.528;2023-08-08T10:34:20;52.40;46.63;68.45;;
76382;Laerm;65202;52.520;10.528;2023-08-08T10:36:51;49.14;43.80;63.84;;
76382;Laerm;65202;52.520;10.528;2023-08-08T10:39:20;55.01;40.48;70.62;;
76382;Laerm;65202;52.520;10.528;2023-08-08T10:41:50;62.86;53.52;72.03;;
76382;Laerm;65202;52.520;10.528;2023-08-08T10:44:24;76.47;57.52;89.26;;
76382;Laerm;65202;52.520;10.528;2023-08-08T10:46:53;68.67;61.50;75.16;;
76382;Laerm;65202;52.520;10.528;2023-08-08T10:49:24;71.31;60.06;76.77;;
76382;Laerm;65202;52.520;10.528;2023-08-08T10:51:51;69.18;62.53;76.19;;
76382;Laerm;65202;52.520;10.528;2023-08-08T10:54:25;78.59;65.24;90.53;;
76382;Laerm;65202;52.520;10.528;2023-08-08T10:56:59;79.22;71.35;89.09;;
76382;Laerm;65202;52.520;10.528;2023-08-08T10:59:36;80.25;65.81;87.89;;
76382;Laerm;65202;52.520;10.528;2023-08-08T11:02:04;82.93;74.94;90.79;;
76382;Laerm;65202;52.520;10.528;2023-08-08T11:04:33;80.97;75.18;88.96;;
76382;Laerm;65202;52.520;10.528;2023-08-08T11:07:01;77.93;47.02;86.93;;
76382;Laerm;65202;52.520;10.528;2023-08-08T11:09:30;60.29;42.69;77.92;;
76382;Laerm;65202;52.520;10.528;2023-08-08T11:11:57;65.25;44.50;78.07;;
76382;Laerm;65202;52.520;10.528;2023-08-08T11:14:25;51.56;43.03;64.72;;
76382;Laerm;65202;52.520;10.528;2023-08-08T11:16:53;53.06;42.59;66.33;;
76382;Laerm;65202;52.520;10.528;2023-08-08T11:19:21;51.90;42.63;68.63;;
76382;Laerm;65202;52.520;10.528;2023-08-08T11:21:50;48.37;41.92;68.33;;
76382;Laerm;65202;52.520;10.528;2023-08-08T11:24:17;50.46;42.83;68.32;;
76382;Laerm;65202;52.520;10.528;2023-08-08T11:26:45;51.63;45.54;56.85;;
76382;Laerm;65202;52.520;10.528;2023-08-08T11:29:14;49.78;41.58;66.04;;
76382;Laerm;65202;52.520;10.528;2023-08-08T11:31:42;47.07;39.33;59.75;;
76382;Laerm;65202;52.520;10.528;2023-08-08T11:34:15;49.65;41.33;64.03;;
76382;Laerm;65202;52.520;10.528;2023-08-08T11:36:45;50.87;42.54;61.87;;
76382;Laerm;65202;52.520;10.528;2023-08-08T11:39:13;50.63;41.83;62.12;;
76382;Laerm;65202;52.520;10.528;2023-08-08T11:41:41;53.32;44.58;61.79;;
76382;Laerm;65202;52.520;10.528;2023-08-08T11:44:09;54.17;47.66;60.56;;
76382;Laerm;65202;52.520;10.528;2023-08-08T11:46:46;56.66;48.70;69.86;;
76382;Laerm;65202;52.520;10.528;2023-08-08T11:49:18;50.32;42.74;57.06;;
76382;Laerm;65202;52.520;10.528;2023-08-08T11:51:46;51.44;43.62;63.42;;
76382;Laerm;65202;52.520;10.528;2023-08-08T11:54:14;48.68;41.20;61.90;;
76382;Laerm;65202;52.520;10.528;2023-08-08T11:56:43;48.95;42.79;57.71;;
76382;Laerm;65202;52.520;10.528;2023-08-08T11:59:10;50.84;40.68;67.47;;
76382;Laerm;65202;52.520;10.528;2023-08-08T12:01:41;46.83;41.58;55.31;;
76382;Laerm;65202;52.520;10.528;2023-08-08T12:04:09;48.01;41.42;54.81;;
76382;Laerm;65202;52.520;10.528;2023-08-08T12:06:37;45.68;40.64;52.81;;
76382;Laerm;65202;52.520;10.528;2023-08-08T12:09:12;50.53;40.97;63.78;;
76382;Laerm;65202;52.520;10.528;2023-08-08T12:11:40;50.29;44.30;67.00;;
76382;Laerm;65202;52.520;10.528;2023-08-08T12:14:08;53.46;45.80;67.84;;
76382;Laerm;65202;52.520;10.528;2023-08-08T12:16:43;52.82;46.04;59.45;;
76382;Laerm;65202;52.520;10.528;2023-08-08T12:19:11;51.26;45.38;62.35;;
76382;Laerm;65202;52.520;10.528;2023-08-08T12:21:39;50.71;46.13;56.05;;
76382;Laerm;65202;52.520;10.528;2023-08-08T12:24:07;47.77;43.05;54.63;;
76382;Laerm;65202;52.520;10.528;2023-08-08T12:26:34;49.01;42.79;55.20;;
76382;Laerm;65202;52.520;10.528;2023-08-08T12:29:01;47.63;40.98;63.77;;
76382;Laerm;65202;52.520;10.528;2023-08-08T12:31:29;47.29;41.56;53.72;;
76382;Laerm;65202;52.520;10.528;2023-08-08T12:33:56;49.17;43.72;62.04;;
76382;Laerm;65202;52.520;10.528;2023-08-08T12:36:23;51.92;45.90;58.50;;
76382;Laerm;65202;52.520;10.528;2023-08-08T12:38:50;55.67;48.93;64.63;;
76382;Laerm;65202;52.520;10.528;2023-08-08T12:41:18;55.02;48.49;64.54;;
76382;Laerm;65202;52.520;10.528;2023-08-08T12:43:45;50.98;46.09;66.40;;
76382;Laerm;65202;52.520;10.528;2023-08-08T12:46:16;52.59;44.71;60.19;;
76382;Laerm;65202;52.520;10.528;2023-08-08T12:48:43;54.04;47.55;61.85;;
76382;Laerm;65202;52.520;10.528;2023-08-08T12:51:11;52.20;46.93;61.17;;
76382;Laerm;65202;52.520;10.528;2023-08-08T12:53:38;51.62;44.64;70.32;;
76382;Laerm;65202;52.520;10.528;2023-08-08T12:56:06;52.70;47.23;57.37;;
76382;Laerm;65202;52.520;10.528;2023-08-08T12:58:33;52.72;42.88;64.26;;
76382;Laerm;65202;52.520;10.528;2023-08-08T13:01:00;52.41;45.87;65.55;;
76382;Laerm;65202;52.520;10.528;2023-08-08T13:03:28;55.43;48.12;62.93;;
76382;Laerm;65202;52.520;10.528;2023-08-08T13:05:59;55.90;46.32;67.84;;
76382;Laerm;65202;52.520;10.528;2023-08-08T13:08:26;52.31;43.95;64.88;;
76382;Laerm;65202;52.520;10.528;2023-08-08T13:10:54;49.55;44.57;62.47;;
76382;Laerm;65202;52.520;10.528;2023-08-08T13:13:24;47.48;42.22;61.38;;
76382;Laerm;65202;52.520;10.528;2023-08-08T13:15:56;50.60;43.73;65.23;;
76382;Laerm;65202;52.520;10.528;2023-08-08T13:18:23;48.75;42.57;53.98;;
76382;Laerm;65202;52.520;10.528;2023-08-08T13:20:50;48.71;40.07;68.62;;
76382;Laerm;65202;52.520;10.528;2023-08-08T13:23:18;46.49;40.57;53.44;;
76382;Laerm;65202;52.520;10.528;2023-08-08T13:25:45;48.38;40.91;66.82;;
76382;Laerm;65202;52.520;10.528;2023-08-08T13:28:13;51.09;45.77;59.24;;
76382;Laerm;65202;52.520;10.528;2023-08-08T13:30:41;56.73;50.83;61.76;;
76382;Laerm;65202;52.520;10.528;2023-08-08T13:33:10;50.51;44.16;58.65;;
76382;Laerm;65202;52.520;10.528;2023-08-08T13:35:37;46.62;41.93;53.41;;
76382;Laerm;65202;52.520;10.528;2023-08-08T13:38:05;48.85;40.01;63.69;;